createdAt,value
2023-03-20T00:00:08.363Z,0.81
2023-03-20T00:02:34.666Z,0.74
2023-03-20T00:05:00.980Z,0.69
2023-03-20T00:07:27.360Z,0.73
2023-03-20T00:09:53.640Z,0.63
2023-03-20T00:12:19.935Z,0.67
2023-03-20T00:14:46.238Z,0.58
2023-03-20T00:17:12.560Z,0.57
2023-03-20T00:19:38.863Z,0.46
2023-03-20T00:22:05.177Z,0.51
2023-03-20T00:24:31.467Z,0.43
2023-03-20T00:26:57.764Z,0.57
2023-03-20T00:29:24.107Z,0.79
2023-03-20T00:31:50.468Z,0.70
2023-03-20T00:34:16.806Z,0.80
2023-03-20T00:36:43.116Z,0.70
2023-03-20T00:39:09.408Z,1.02
2023-03-20T00:41:35.718Z,1.06
2023-03-20T00:44:02.055Z,1.34
2023-03-20T00:46:28.418Z,1.43
2023-03-20T00:48:54.829Z,1.17
2023-03-20T00:51:21.201Z,1.22
2023-03-20T00:53:47.504Z,1.35
2023-03-20T00:56:13.799Z,1.23
2023-03-20T00:58:40.108Z,0.82
2023-03-20T01:01:06.429Z,0.65
2023-03-20T01:03:32.741Z,0.77
2023-03-20T01:05:59.071Z,0.70
2023-03-20T01:08:25.370Z,0.60
2023-03-20T01:10:51.665Z,0.54
2023-03-20T01:13:17.997Z,0.74
2023-03-20T01:15:44.292Z,0.74
2023-03-20T01:18:10.594Z,0.75
2023-03-20T01:20:38.799Z,0.79
2023-03-20T01:23:05.094Z,0.70
2023-03-20T01:25:31.393Z,0.65
2023-03-20T01:27:57.721Z,0.63
2023-03-20T01:30:24.024Z,0.72
2023-03-20T01:32:50.353Z,0.71
2023-03-20T01:35:16.717Z,0.84
2023-03-20T01:37:43.018Z,0.82
2023-03-20T01:40:09.313Z,0.83
2023-03-20T01:42:35.636Z,0.89
2023-03-20T01:45:01.963Z,0.91
2023-03-20T01:47:28.262Z,1.05
2023-03-20T01:49:54.597Z,0.97
2023-03-20T01:52:20.890Z,1.03
2023-03-20T01:54:47.190Z,1.07
2023-03-20T01:57:13.531Z,0.91
2023-03-20T01:59:39.833Z,0.82
2023-03-20T02:02:06.123Z,0.79
2023-03-20T02:04:32.435Z,0.77
2023-03-20T02:06:58.735Z,0.87
2023-03-20T02:09:25.039Z,0.77
2023-03-20T02:11:51.351Z,0.61
2023-03-20T02:14:17.672Z,0.63
2023-03-20T02:16:44.025Z,0.54
2023-03-20T02:19:10.375Z,0.56
2023-03-20T02:21:36.724Z,0.59
2023-03-20T02:24:03.012Z,0.59
2023-03-20T02:26:29.318Z,0.51
2023-03-20T02:28:55.607Z,0.65
2023-03-20T02:31:21.960Z,0.53
2023-03-20T02:33:48.316Z,0.49
2023-03-20T02:36:14.613Z,0.46
2023-03-20T02:38:41.072Z,0.56
2023-03-20T02:41:07.411Z,0.53
2023-03-20T02:43:33.713Z,0.75
2023-03-20T02:46:00.030Z,0.74
2023-03-20T02:48:26.386Z,0.75
2023-03-20T02:50:52.680Z,0.65
2023-03-20T02:53:18.964Z,0.82
2023-03-20T02:55:45.285Z,0.73
2023-03-20T02:58:11.616Z,0.86
2023-03-20T03:00:37.958Z,0.92
2023-03-20T03:03:04.436Z,0.92
2023-03-20T03:05:30.749Z,1.15
2023-03-20T03:07:58.135Z,2.08
2023-03-20T03:10:24.464Z,1.71
2023-03-20T03:12:50.772Z,1.53
2023-03-20T03:15:17.079Z,1.19
2023-03-20T03:17:43.506Z,1.29
2023-03-20T03:20:09.804Z,1.27
2023-03-20T03:22:36.112Z,1.49
2023-03-20T03:25:02.437Z,1.51
2023-03-20T03:27:28.743Z,1.46
2023-03-20T03:29:55.111Z,1.66
2023-03-20T03:32:21.450Z,1.50
2023-03-20T03:34:47.744Z,1.52
2023-03-20T03:37:14.039Z,1.61
2023-03-20T03:39:40.345Z,1.83
2023-03-20T03:42:06.639Z,1.86
2023-03-20T03:44:32.934Z,1.77
2023-03-20T03:46:59.286Z,1.80
2023-03-20T03:49:25.599Z,1.74
2023-03-20T03:51:51.880Z,1.82
2023-03-20T03:54:18.199Z,1.78
2023-03-20T03:56:44.486Z,1.91
2023-03-20T03:59:10.786Z,1.97
2023-03-20T04:01:37.140Z,1.88
2023-03-20T04:04:04.930Z,1.73
2023-03-20T04:06:31.332Z,1.53
2023-03-20T04:08:57.695Z,1.72
2023-03-20T04:11:23.984Z,1.76
2023-03-20T04:13:50.284Z,1.78
2023-03-20T04:16:16.720Z,2.16
2023-03-20T04:21:26.329Z,2.26
2023-03-20T04:23:52.632Z,2.41
2023-03-20T04:26:18.920Z,2.19
2023-03-20T04:28:45.257Z,2.36
2023-03-20T04:31:11.587Z,2.56
2023-03-20T04:33:37.893Z,2.19
2023-03-20T04:36:04.262Z,2.23
2023-03-20T04:38:30.592Z,2.13
2023-03-20T04:40:56.895Z,2.20
2023-03-20T04:43:23.204Z,2.07
2023-03-20T04:45:49.619Z,2.15
2023-03-20T04:48:16.005Z,2.51
2023-03-20T04:50:42.335Z,2.75
2023-03-20T04:53:08.638Z,2.93
2023-03-20T04:55:35.217Z,2.66
2023-03-20T04:58:01.852Z,2.82
2023-03-20T05:00:28.156Z,2.73
2023-03-20T05:02:54.470Z,2.75
2023-03-20T05:05:20.821Z,2.65
2023-03-20T05:07:47.137Z,2.48
2023-03-20T05:10:13.445Z,2.06
2023-03-20T05:12:39.801Z,2.23
2023-03-20T05:15:06.102Z,3.85
2023-03-20T05:17:32.396Z,2.36
2023-03-20T05:19:58.723Z,3.35
2023-03-20T05:22:25.012Z,3.73
2023-03-20T05:24:51.305Z,3.53
2023-03-20T05:27:17.630Z,3.79
2023-03-20T05:29:43.929Z,4.17
2023-03-20T05:32:10.229Z,4.91
2023-03-20T05:34:36.567Z,5.38
2023-03-20T05:37:02.884Z,5.43
2023-03-20T05:39:29.196Z,5.50
2023-03-20T05:41:55.521Z,5.52
2023-03-20T05:44:21.837Z,5.50
2023-03-20T05:46:48.137Z,5.10
2023-03-20T05:49:14.462Z,4.16
2023-03-20T05:51:40.752Z,4.19
2023-03-20T05:54:07.069Z,5.24
2023-03-20T05:56:33.405Z,5.48
2023-03-20T05:58:59.711Z,5.74
2023-03-20T06:01:26.008Z,5.17
2023-03-20T06:03:52.373Z,5.16
2023-03-20T06:06:18.683Z,5.16
2023-03-20T06:08:44.973Z,5.98
2023-03-20T06:11:11.283Z,5.62
2023-03-20T06:13:37.590Z,5.75
2023-03-20T06:16:03.947Z,5.15
2023-03-20T06:18:30.341Z,4.28
2023-03-20T06:20:56.655Z,4.31
2023-03-20T06:23:22.962Z,4.51
2023-03-20T06:25:49.305Z,4.77
2023-03-20T06:28:15.629Z,5.30
2023-03-20T06:30:41.956Z,5.12
2023-03-20T06:33:08.381Z,5.24
2023-03-20T06:35:35.154Z,5.18
2023-03-20T06:38:01.628Z,4.27
2023-03-20T06:40:27.939Z,4.22
2023-03-20T06:42:54.234Z,4.20
2023-03-20T06:45:20.527Z,4.00
2023-03-20T06:47:46.858Z,4.60
2023-03-20T06:50:13.170Z,4.80
2023-03-20T06:52:39.476Z,4.86
2023-03-20T06:55:05.808Z,3.78
2023-03-20T06:57:32.127Z,3.37
2023-03-20T06:59:58.453Z,2.92
2023-03-20T07:02:24.783Z,3.55
2023-03-20T07:04:51.130Z,3.39
2023-03-20T07:07:17.477Z,3.50
2023-03-20T07:09:43.801Z,3.44
2023-03-20T07:12:10.105Z,3.49
2023-03-20T07:14:36.408Z,3.54
2023-03-20T07:17:02.729Z,3.31
2023-03-20T07:19:29.028Z,3.40
2023-03-20T07:21:55.319Z,3.35
2023-03-20T07:24:21.690Z,3.19
2023-03-20T07:26:47.996Z,2.84
2023-03-20T07:29:14.293Z,2.89
2023-03-20T07:31:40.658Z,2.76
2023-03-20T07:34:06.971Z,3.08
2023-03-20T07:36:33.265Z,3.07
2023-03-20T07:38:59.593Z,3.42
2023-03-20T07:41:25.886Z,3.67
2023-03-20T07:43:52.247Z,3.65
2023-03-20T07:46:18.610Z,3.84
2023-03-20T07:48:44.993Z,3.72
2023-03-20T07:51:11.302Z,3.92
2023-03-20T07:53:37.626Z,3.67
2023-03-20T07:56:03.930Z,4.13
2023-03-20T07:58:30.296Z,3.91
2023-03-20T08:00:56.624Z,4.84
2023-03-20T08:03:23.085Z,5.50
2023-03-20T08:05:49.537Z,5.76
2023-03-20T08:08:16.220Z,7.56
2023-03-20T08:10:42.593Z,7.77
2023-03-20T08:13:08.902Z,8.29
2023-03-20T08:15:35.361Z,7.92
2023-03-20T08:18:01.854Z,8.16
2023-03-20T08:20:28.177Z,7.38
2023-03-20T08:22:54.484Z,7.98
2023-03-20T08:25:20.789Z,8.04
2023-03-20T08:27:47.087Z,8.04
2023-03-20T08:30:13.459Z,7.63
2023-03-20T08:32:39.797Z,7.88
2023-03-20T08:35:06.111Z,8.19
2023-03-20T08:37:32.434Z,8.17
2023-03-20T08:39:58.722Z,8.23
2023-03-20T08:42:25.027Z,8.50
2023-03-20T08:44:51.340Z,7.52
2023-03-20T08:47:17.651Z,7.33
2023-03-20T08:49:44.090Z,6.23
2023-03-20T08:52:10.433Z,6.33
2023-03-20T08:54:36.760Z,6.31
2023-03-20T08:57:03.061Z,5.90
2023-03-20T08:59:29.387Z,6.00
2023-03-20T09:01:55.733Z,5.38
2023-03-20T09:04:22.064Z,5.63
2023-03-20T09:06:48.489Z,5.74
2023-03-20T09:09:14.839Z,6.05
2023-03-20T09:11:41.144Z,6.38
2023-03-20T09:14:07.476Z,6.89
2023-03-20T09:16:33.826Z,6.94
2023-03-20T09:19:00.164Z,5.89
2023-03-20T09:21:26.498Z,6.13
2023-03-20T09:23:52.804Z,5.45
2023-03-20T09:26:19.100Z,4.70
2023-03-20T09:28:45.438Z,4.55
2023-03-20T09:31:11.796Z,3.71
2023-03-20T09:33:38.119Z,3.79
2023-03-20T09:36:04.501Z,3.27
2023-03-20T09:38:30.930Z,3.06
2023-03-20T09:40:57.232Z,3.14
2023-03-20T09:43:23.549Z,3.10
2023-03-20T09:45:49.842Z,3.31
2023-03-20T09:48:16.153Z,3.24
2023-03-20T09:50:42.648Z,3.83
2023-03-20T09:53:08.986Z,3.96
2023-03-20T09:55:35.617Z,4.40
2023-03-20T09:58:02.202Z,4.68
2023-03-20T10:00:28.522Z,4.80
2023-03-20T10:02:54.835Z,4.53
2023-03-20T10:05:21.174Z,4.23
2023-03-20T10:07:47.483Z,4.15
2023-03-20T10:10:13.823Z,4.12
2023-03-20T10:12:40.153Z,3.75
2023-03-20T10:15:06.462Z,4.03
2023-03-20T10:17:32.781Z,4.46
2023-03-20T10:19:59.128Z,3.92
2023-03-20T10:22:25.508Z,3.87
2023-03-20T10:24:51.842Z,3.68
2023-03-20T10:27:18.169Z,3.72
2023-03-20T10:29:44.480Z,4.09
2023-03-20T10:32:10.792Z,3.76
2023-03-20T10:34:37.123Z,3.69
2023-03-20T10:37:03.450Z,3.69
2023-03-20T10:39:29.776Z,4.01
2023-03-20T10:41:56.162Z,3.99
2023-03-20T10:44:22.475Z,3.85
2023-03-20T10:46:48.874Z,3.89
2023-03-20T10:49:15.418Z,3.51
2023-03-20T10:51:41.733Z,3.24
2023-03-20T10:54:08.043Z,3.49
2023-03-20T10:56:34.374Z,3.42
2023-03-20T10:59:00.667Z,2.82
2023-03-20T11:01:27.103Z,2.63
2023-03-20T11:03:53.530Z,2.52
2023-03-20T11:06:19.880Z,2.93
2023-03-20T11:08:46.176Z,2.60
2023-03-20T11:11:12.520Z,2.51
2023-03-20T11:13:38.826Z,2.24
2023-03-20T11:16:05.278Z,2.11
2023-03-20T11:18:31.696Z,2.26
2023-03-20T11:20:58.035Z,1.91
2023-03-20T11:23:24.336Z,2.12
2023-03-20T11:25:50.670Z,2.27
2023-03-20T11:28:16.982Z,1.91
2023-03-20T11:31:01.372Z,1.89
2023-03-20T11:33:29.586Z,2.23
2023-03-20T11:35:55.940Z,1.79
2023-03-20T11:38:22.300Z,2.05
2023-03-20T11:40:48.615Z,1.97
2023-03-20T11:43:14.909Z,1.71
2023-03-20T11:45:41.245Z,1.59
2023-03-20T11:48:07.614Z,1.57
2023-03-20T11:50:34.133Z,1.77
2023-03-20T11:53:00.649Z,1.47
2023-03-20T11:55:26.979Z,1.61
2023-03-20T11:57:53.275Z,1.59
2023-03-20T12:00:19.563Z,1.20
2023-03-20T12:02:45.971Z,0.94
2023-03-20T12:05:14.074Z,0.65
2023-03-20T12:07:41.459Z,0.71
2023-03-20T12:10:07.783Z,0.67
2023-03-20T12:12:34.079Z,0.54
2023-03-20T12:15:00.378Z,0.43
2023-03-20T12:17:26.767Z,0.48
2023-03-20T12:19:53.098Z,0.64
2023-03-20T12:22:19.393Z,0.59
2023-03-20T12:24:45.707Z,0.58
2023-03-20T12:27:12.008Z,0.59
2023-03-20T12:29:38.318Z,0.76
2023-03-20T12:32:04.845Z,0.77
2023-03-20T12:34:31.139Z,0.77
2023-03-20T12:36:57.634Z,0.73
2023-03-20T12:39:24.010Z,0.70
2023-03-20T12:41:50.296Z,0.90
2023-03-20T12:44:16.602Z,1.04
2023-03-20T12:46:43.019Z,1.17
2023-03-20T12:49:09.344Z,1.25
2023-03-20T12:51:35.643Z,0.99
2023-03-20T12:54:02.001Z,1.11
2023-03-20T12:56:28.296Z,1.04
2023-03-20T12:58:54.601Z,1.12
2023-03-20T13:01:20.982Z,1.21
2023-03-20T13:03:47.351Z,0.96
2023-03-20T13:06:13.660Z,0.93
2023-03-20T13:08:39.998Z,0.74
2023-03-20T13:11:06.296Z,0.37
2023-03-20T13:13:32.615Z,0.25
2023-03-20T13:15:59.275Z,0.19
2023-03-20T13:18:25.612Z,0.33
2023-03-20T13:20:51.922Z,0.36
2023-03-20T13:23:18.239Z,0.47
2023-03-20T13:25:44.539Z,0.49
2023-03-20T13:28:10.896Z,0.45
2023-03-20T13:30:37.477Z,0.43
2023-03-20T13:33:04.070Z,0.54
2023-03-20T13:35:30.551Z,0.60
2023-03-20T13:37:56.917Z,0.51
2023-03-20T13:40:23.198Z,0.49
2023-03-20T13:42:49.490Z,0.64
2023-03-20T13:45:15.800Z,0.56
2023-03-20T13:47:42.099Z,0.63
2023-03-20T13:50:08.442Z,0.59
2023-03-20T13:52:34.824Z,0.79
2023-03-20T13:55:01.142Z,0.91
2023-03-20T13:57:27.455Z,0.74
2023-03-20T13:59:53.846Z,0.68
2023-03-20T14:02:20.152Z,1.20
2023-03-20T14:04:46.455Z,1.12
2023-03-20T14:07:12.777Z,0.82
2023-03-20T14:09:39.070Z,0.93
2023-03-20T14:12:05.369Z,0.98
2023-03-20T14:14:31.688Z,0.93
2023-03-20T14:16:57.977Z,1.02
2023-03-20T14:19:24.272Z,0.88
2023-03-20T14:21:50.596Z,0.85
2023-03-20T14:24:16.904Z,0.95
2023-03-20T14:26:43.214Z,0.99
2023-03-20T14:29:09.539Z,0.97
2023-03-20T14:31:35.853Z,0.89
2023-03-20T14:34:02.148Z,0.78
2023-03-20T14:36:28.467Z,0.94
2023-03-20T14:38:55.273Z,0.92
2023-03-20T14:41:21.631Z,0.83
2023-03-20T14:43:47.955Z,0.95
2023-03-20T14:46:14.253Z,0.92
2023-03-20T14:48:40.686Z,0.95
2023-03-20T14:51:07.011Z,0.81
2023-03-20T14:53:33.312Z,0.85
2023-03-20T14:55:59.626Z,0.78
2023-03-20T14:58:25.948Z,0.74
2023-03-20T15:00:52.280Z,0.75
2023-03-20T15:03:18.595Z,0.62
2023-03-20T15:05:44.943Z,0.66
2023-03-20T15:08:11.249Z,0.59
2023-03-20T15:10:38.015Z,0.72
2023-03-20T15:13:04.660Z,0.81
2023-03-20T15:15:30.955Z,0.97
2023-03-20T15:17:57.247Z,1.07
2023-03-20T15:20:23.577Z,1.13
2023-03-20T15:22:49.872Z,1.27
2023-03-20T15:25:16.181Z,1.19
2023-03-20T15:27:42.483Z,1.27
2023-03-20T15:30:08.777Z,1.16
2023-03-20T15:32:35.154Z,1.16
2023-03-20T15:35:01.510Z,1.09
2023-03-20T15:37:27.874Z,1.22
2023-03-20T15:39:54.177Z,1.10
2023-03-20T15:42:20.750Z,0.99
2023-03-20T15:44:47.049Z,0.95
2023-03-20T15:47:13.371Z,1.08
2023-03-20T15:49:39.697Z,0.88
2023-03-20T15:52:06.001Z,0.73
2023-03-20T15:54:32.316Z,0.78
2023-03-20T15:56:58.649Z,0.89
2023-03-20T15:59:25.075Z,0.84
2023-03-20T16:01:51.406Z,0.81
2023-03-20T16:04:17.842Z,0.65
2023-03-20T16:06:44.137Z,0.71
2023-03-20T16:09:10.428Z,0.67
2023-03-20T16:11:36.796Z,0.65
2023-03-20T16:14:03.096Z,0.74
2023-03-20T16:16:29.408Z,0.76
2023-03-20T16:18:58.031Z,0.75
2023-03-20T16:21:25.444Z,0.81
2023-03-20T16:23:51.760Z,0.83
2023-03-20T16:26:18.089Z,0.97
2023-03-20T16:28:44.487Z,1.07
2023-03-20T16:31:10.882Z,1.00
2023-03-20T16:33:37.267Z,1.05
2023-03-20T16:36:03.675Z,0.87
2023-03-20T16:38:29.982Z,0.87
2023-03-20T16:40:56.302Z,0.88
2023-03-20T16:43:22.590Z,0.93
2023-03-20T16:45:48.890Z,0.92
2023-03-20T16:48:15.200Z,1.03
2023-03-20T16:50:41.505Z,0.95
2023-03-20T16:53:07.855Z,0.87
2023-03-20T16:55:34.153Z,0.81
2023-03-20T16:58:00.826Z,0.97
2023-03-20T17:00:27.210Z,0.83
2023-03-20T17:02:53.626Z,0.81
2023-03-20T17:05:20.138Z,0.76
2023-03-20T17:07:46.513Z,0.85
2023-03-20T17:10:12.832Z,1.11
2023-03-20T17:12:39.153Z,1.10
2023-03-20T17:15:05.517Z,1.10
2023-03-20T17:17:32.270Z,1.28
2023-03-20T17:19:58.674Z,1.15
2023-03-20T17:22:25.082Z,1.07
2023-03-20T17:24:51.395Z,0.99
2023-03-20T17:27:17.698Z,1.07
2023-03-20T17:29:43.991Z,1.09
2023-03-20T17:32:10.402Z,1.32
2023-03-20T17:34:36.727Z,1.59
2023-03-20T17:37:03.025Z,2.03
2023-03-20T17:39:29.335Z,2.77
2023-03-20T17:41:55.713Z,2.29
2023-03-20T17:44:22.017Z,2.15
2023-03-20T17:46:57.727Z,1.90
2023-03-20T17:49:24.858Z,1.63
2023-03-20T17:51:51.162Z,1.48
2023-03-20T17:54:17.491Z,1.30
2023-03-20T17:56:43.781Z,1.18
2023-03-20T17:59:10.090Z,1.20
2023-03-20T18:01:36.393Z,1.13
2023-03-20T18:04:02.711Z,0.83
2023-03-20T18:06:29.063Z,0.83
2023-03-20T18:08:55.385Z,1.00
2023-03-20T18:11:21.695Z,0.92
2023-03-20T18:13:48.016Z,0.84
2023-03-20T18:16:14.327Z,0.79
2023-03-20T18:18:40.791Z,0.86
2023-03-20T18:21:07.156Z,0.91
2023-03-20T18:23:33.444Z,0.70
2023-03-20T18:26:00.337Z,0.84
2023-03-20T18:28:26.712Z,0.75
2023-03-20T18:30:53.147Z,0.69
2023-03-20T18:33:19.715Z,0.72
2023-03-20T18:35:46.151Z,1.36
2023-03-20T18:38:12.457Z,1.06
2023-03-20T18:40:38.934Z,0.92
2023-03-20T18:43:05.462Z,0.94
2023-03-20T18:45:31.808Z,0.98
2023-03-20T18:47:58.130Z,1.03
2023-03-20T18:50:24.455Z,1.05
2023-03-20T18:52:50.744Z,0.88
2023-03-20T18:55:17.030Z,1.03
2023-03-20T18:57:43.350Z,0.87
2023-03-20T19:00:09.635Z,0.99
2023-03-20T19:02:35.928Z,0.90
2023-03-20T19:05:02.247Z,0.91
2023-03-20T19:07:28.551Z,0.95
2023-03-20T19:09:54.960Z,0.84
2023-03-20T19:12:21.310Z,0.82
2023-03-20T19:14:47.767Z,0.79
2023-03-20T19:17:14.057Z,0.80
2023-03-20T19:19:40.394Z,0.84
2023-03-20T19:22:10.699Z,1.10
2023-03-20T19:24:39.493Z,1.00
2023-03-20T19:27:05.861Z,0.84
2023-03-20T19:29:32.156Z,0.83
2023-03-20T19:31:58.500Z,0.72
2023-03-20T19:35:15.036Z,0.61
2023-03-20T19:37:11.080Z,0.77
2023-03-20T19:39:37.393Z,0.82
2023-03-20T19:42:29.385Z,0.70
2023-03-20T19:44:49.973Z,0.59
2023-03-20T19:47:16.304Z,1.45
2023-03-20T19:49:42.853Z,0.93
2023-03-20T19:52:09.160Z,0.57
2023-03-20T19:54:35.470Z,0.44
2023-03-20T19:57:01.788Z,0.53
2023-03-20T19:59:29.041Z,0.54
2023-03-20T20:01:55.502Z,0.64
2023-03-20T20:04:21.924Z,0.59
2023-03-20T20:06:48.232Z,0.52
2023-03-20T20:09:14.530Z,0.58
2023-03-20T20:11:40.814Z,0.58
2023-03-20T20:14:09.404Z,0.80
2023-03-20T20:16:36.611Z,0.78
2023-03-20T20:19:03.066Z,0.57
2023-03-20T20:24:15.710Z,0.67
2023-03-20T20:26:53.201Z,0.65
2023-03-20T20:29:19.917Z,0.61
2023-03-20T20:31:46.408Z,0.57
2023-03-20T20:35:14.938Z,0.65
2023-03-20T20:39:45.616Z,0.69
2023-03-20T20:42:11.968Z,0.62
2023-03-20T20:44:38.266Z,0.57
2023-03-20T20:47:04.564Z,0.71
2023-03-20T20:49:31.417Z,0.63
2023-03-20T20:51:57.745Z,0.60
2023-03-20T20:54:24.029Z,0.58
2023-03-20T20:56:50.335Z,0.59
2023-03-20T20:59:16.628Z,0.56
2023-03-20T21:01:42.965Z,0.53
2023-03-20T21:04:09.344Z,0.65
2023-03-20T21:07:03.900Z,0.67
2023-03-20T21:09:21.917Z,0.69
2023-03-20T21:11:48.205Z,0.69
2023-03-20T21:14:14.500Z,0.62
2023-03-20T21:16:40.813Z,0.62
2023-03-20T21:19:07.143Z,0.70
2023-03-20T21:21:33.487Z,0.69
2023-03-20T21:23:59.801Z,0.70
2023-03-20T21:26:26.102Z,0.72
2023-03-20T21:28:52.387Z,0.71
2023-03-20T21:31:25.513Z,0.69
2023-03-20T21:33:52.984Z,0.74
2023-03-20T21:36:19.854Z,0.74
2023-03-20T21:41:32.520Z,0.72
2023-03-20T21:44:01.238Z,0.73
2023-03-20T21:50:07.822Z,0.82
2023-03-20T21:52:59.916Z,0.81
2023-03-20T21:55:21.241Z,0.77
2023-03-20T22:01:09.650Z,1.00
2023-03-20T22:03:10.977Z,1.37
2023-03-20T22:06:22.063Z,1.29
2023-03-20T22:09:23.691Z,1.44
2023-03-20T22:12:01.712Z,1.34
2023-03-20T22:14:49.323Z,1.40
2023-03-20T22:34:09.682Z,0.95
2023-03-20T22:39:22.803Z,1.07
2023-03-20T22:47:17.603Z,0.92
2023-03-20T22:49:43.940Z,1.09
2023-03-20T22:52:26.650Z,0.93
2023-03-20T22:54:56.504Z,0.92
2023-03-20T22:57:26.614Z,1.02
2023-03-20T23:00:00.987Z,1.03
2023-03-20T23:02:27.271Z,0.97
2023-03-20T23:04:53.632Z,0.99
2023-03-20T23:07:19.961Z,1.23
2023-03-20T23:09:46.260Z,1.11
2023-03-20T23:12:12.556Z,1.02
2023-03-20T23:14:45.708Z,1.12
2023-03-20T23:17:12.588Z,1.11
2023-03-20T23:19:47.852Z,1.12
2023-03-20T23:22:18.240Z,1.16
2023-03-20T23:24:44.560Z,1.12
2023-03-20T23:27:10.861Z,0.98
2023-03-20T23:29:37.158Z,1.06
2023-03-20T23:32:03.591Z,1.06
2023-03-20T23:34:29.898Z,1.26
2023-03-20T23:36:56.214Z,1.13
2023-03-20T23:39:22.644Z,1.20
2023-03-20T23:42:07.780Z,1.20
2023-03-20T23:44:37.590Z,1.25
2023-03-20T23:47:17.812Z,1.15
2023-03-20T23:49:46.328Z,1.21
2023-03-20T23:52:12.623Z,1.35
2023-03-20T23:54:38.919Z,1.71
2023-03-20T23:57:05.240Z,1.85
2023-03-20T23:59:31.544Z,1.76
